Latest Weather Observations for Port Pirie Airport AWS

IDS60801

Issued at 5:31 pm CST Monday 25 September 2017 (issued every 30 minutes, with the page automatically refreshed every 10 minutes)

About weather observations | Map of weather stations | Latest weather observations for SA | Other Formats
Station Details ID: 021139 Name: PORT PIRIE AERODROME AWS Lat: -33.24 Lon: 138.00 Height: 12.0 m
Data from the previous 72 hours. | See also: Recent months for locations in South Australia
Date/Time
CST
Temp
°C
App
Temp
°C
Dew
Point
°C
Rel
Hum
%
Delta-T
°C
Wind Press
QNH
hPa
Press
MSL
hPa
Rain since
9am
mm
Dir  Spd
km/h
Gust
km/h
Spd
kts
Gust
kts
25/05:30pm 17.4 13.1 8.0 54 4.8 SSW 20 26 11 14 1012.4 1012.4 0.0
25/05:00pm 18.5 13.7 7.3 48 5.7 SSW 22 28 12 15 1012.4 1012.4 0.0
25/04:30pm 19.7 14.7 8.1 47 6.0 SW 24 32 13 17 1012.3 1012.3 0.0
25/04:00pm 20.6 16.2 7.2 42 6.8 SW 20 28 11 15 1012.4 1012.4 0.0
25/03:30pm 20.1 15.9 5.7 39 7.1 S 17 24 9 13 1012.3 1012.3 0.0
25/03:00pm 20.5 16.5 4.9 36 7.6 S 15 24 8 13 1012.4 1012.4 0.0
25/02:30pm 20.9 16.4 4.0 33 8.1 S 17 28 9 15 1012.5 1012.5 0.0
25/02:00pm 20.7 15.5 3.4 32 8.2 S 20 28 11 15 1013.0 1013.0 0.0
25/01:30pm 21.0 15.8 3.7 32 8.3 SSW 20 30 11 16 1013.1 1013.1 0.0
25/01:00pm 19.6 14.5 3.3 34 7.7 S 19 24 10 13 1013.6 1013.6 0.0
25/12:30pm 19.3 14.2 3.1 34 7.6 SSW 19 28 10 15 1014.0 1014.0 0.0
25/12:00pm 18.7 13.9 4.5 39 6.8 S 19 24 10 13 1013.8 1013.8 0.0
25/11:30am 18.5 13.6 4.3 39 6.8 S 19 26 10 14 1013.8 1013.8 0.0
25/11:00am 17.9 13.3 5.5 44 6.0 SSW 19 28 10 15 1014.1 1014.1 0.0
25/10:30am 17.8 14.7 5.4 44 6.0 SW 11 24 6 13 1014.5 1014.5 0.0
25/10:00am 17.3 13.8 5.6 46 5.7 SSW 13 20 7 11 1014.5 1014.5 0.0
25/09:30am 16.3 12.4 5.3 48 5.2 SSW 15 30 8 16 1014.5 1014.5 0.0
25/09:00am 15.7 12.0 6.2 53 4.6 SW 15 22 8 12 1014.5 1014.5 0.0
25/08:30am 15.0 12.3 7.3 60 3.8 SSW 11 15 6 8 1014.2 1014.2 0.0
25/08:00am 13.2 12.0 6.5 64 3.2 ENE 2 7 1 4 1014.0 1014.0 0.0
25/07:30am 11.1 9.3 7.0 76 2.0 N 6 9 3 5 1013.6 1013.6 0.0
25/07:00am 7.1 4.7 5.4 89 0.8 NE 7 9 4 5 1013.1 1013.1 0.0
25/06:30am 6.0 2.9 3.5 84 1.0 NNE 9 11 5 6 1012.6 1012.6 0.0
25/06:00am 8.4 5.4 5.9 84 1.1 NNE 11 13 6 7 1012.4 1012.4 0.0
25/05:30am 7.3 4.5 5.1 86 1.0 N 9 11 5 6 1012.1 1012.1 0.0
25/05:00am 7.7 4.3 5.8 88 0.9 N 13 15 7 8 1012.0 1012.0 0.0
25/04:30am 7.1 3.6 5.3 88 0.8 N 13 15 7 8 1011.5 1011.5 0.0
25/04:00am 7.6 4.5 5.4 86 1.0 NE 11 13 6 7 1011.2 1011.2 0.0
25/03:30am 8.1 4.7 6.1 87 0.9 NNE 13 13 7 7 1011.7 1011.7 0.0
25/03:00am 7.7 4.3 5.7 87 0.9 N 13 13 7 7 1012.0 1012.0 0.0
25/02:30am 7.7 4.5 5.3 85 1.1 NNW 11 13 6 7 1011.9 1011.9 0.0
25/02:00am 8.8 6.3 6.6 86 1.0 NNW 9 11 5 6 1012.0 1012.0 0.0
25/01:30am 9.1 7.1 6.2 82 1.3 WNW 6 7 3 4 1011.9 1011.9 0.0
25/01:00am 9.1 7.9 6.4 83 1.2 SW 2 7 1 4 1011.8 1011.8 0.0
25/12:30am 9.3 6.0 6.2 81 1.4 SW 13 15 7 8 1011.9 1011.9 0.0
25/12:00am 10.5 6.9 6.8 78 1.7 WSW 15 17 8 9 1011.7 1011.7 0.0
 
Date/Time
CST
Temp
°C
App
Temp
°C
Dew
Point
°C
Rel
Hum
%
Delta-T
°C
Wind Press
QNH
hPa
Press
MSL
hPa
Rain since
9am
mm
Dir  Spd
km/h
Gust
km/h
Spd
kts
Gust
kts
24/11:30pm 10.5 6.9 6.6 77 1.8 WSW 15 19 8 10 1011.7 1011.7 0.0
24/11:00pm 11.0 8.9 6.0 71 2.3 WSW 6 11 3 6 1011.9 1011.9 0.0
24/10:30pm 11.6 9.6 6.9 73 2.2 WSW 7 9 4 5 1012.1 1012.1 0.0
24/10:00pm 12.2 10.2 7.1 71 2.5 WSW 7 11 4 6 1012.1 1012.1 0.0
24/09:30pm 10.7 7.3 5.9 72 2.2 E 13 13 7 7 1011.9 1011.9 0.0
24/09:00pm 12.5 11.0 7.0 69 2.6 ESE 4 11 2 6 1011.5 1011.5 0.0
24/08:30pm 13.4 10.7 7.4 67 2.9 S 11 15 6 8 1010.9 1010.9 0.0
24/08:00pm 13.2 10.2 6.1 62 3.4 SSE 11 13 6 7 1010.2 1010.2 0.0
24/07:30pm 15.1 11.9 6.9 58 4.0 S 13 17 7 9 1009.6 1009.6 0.0
24/07:00pm 15.4 11.3 6.4 55 4.4 S 17 20 9 11 1009.2 1009.2 0.0
24/06:30pm 15.7 11.0 5.9 52 4.7 SSW 20 26 11 14 1008.5 1008.5 0.0
24/06:00pm 16.3 10.4 5.9 50 5.0 SSW 26 35 14 19 1007.9 1007.9 0.0
24/05:30pm 17.1 10.7 5.4 46 5.6 SSW 28 33 15 18 1007.4 1007.4 0.0
24/05:00pm 18.5 11.8 5.4 42 6.4 SSW 30 37 16 20 1007.1 1007.1 0.0
24/04:30pm 18.9 12.5 5.0 40 6.7 SSW 28 35 15 19 1006.7 1006.7 0.0
24/04:00pm 19.9 13.5 5.2 38 7.2 SSW 28 35 15 19 1006.5 1006.5 0.0
24/03:30pm 21.7 14.4 4.7 33 8.4 W 32 57 17 31 1006.0 1006.0 0.0
24/03:29pm 21.9 14.5 4.0 31 8.7 W 32 57 17 31 1005.8 1005.8 0.0
24/03:00pm 22.3 16.2 2.9 28 9.3 W 24 35 13 19 1006.1 1006.1 0.0
24/02:30pm 21.9 15.1 3.1 29 9.0 WNW 28 35 15 19 1006.3 1006.3 0.0
24/02:00pm 22.5 15.8 3.6 29 9.1 W 28 35 15 19 1006.4 1006.4 0.0
24/01:30pm 21.4 14.6 3.1 30 8.7 W 28 39 15 21 1006.6 1006.6 0.0
24/01:00pm 21.4 14.9 4.5 33 8.2 WNW 28 39 15 21 1006.9 1006.9 0.0
24/12:30pm 20.8 15.1 4.8 35 7.8 WNW 24 33 13 18 1007.3 1007.3 0.0
24/12:02pm 20.5 14.0 4.9 36 7.6 WNW 28 48 15 26 1007.4 1007.4 0.0
24/12:00pm 20.4 13.8 4.4 35 7.8 WNW 28 39 15 21 1007.7 1007.7 0.0
24/11:30am 19.7 12.4 4.6 37 7.3 WNW 32 44 17 24 1007.9 1007.9 0.0
24/11:00am 18.5 12.1 5.4 42 6.4 NW 28 39 15 21 1008.1 1008.1 0.0
24/10:30am 18.3 11.9 6.8 47 5.8 NW 30 41 16 22 1008.4 1008.4 0.0
24/10:00am 18.4 11.6 6.9 47 5.8 NW 32 44 17 24 1008.6 1008.6 0.0
24/09:30am 17.5 11.2 7.5 52 5.0 NW 30 39 16 21 1008.5 1008.5 0.0
24/09:00am 16.8 10.5 7.4 54 4.7 NW 30 41 16 22 1008.6 1008.6 0.0
24/08:30am 16.1 9.6 8.3 60 4.0 NW 32 41 17 22 1008.5 1008.5 0.0
24/08:00am 15.3 9.5 8.1 62 3.6 NNW 28 35 15 19 1008.3 1008.3 0.0
24/07:30am 14.8 9.1 8.3 65 3.3 NW 28 39 15 21 1007.9 1007.9 0.0
24/07:00am 14.0 9.0 8.2 68 2.9 NNW 24 30 13 16 1007.5 1007.5 0.0
24/06:30am 12.1 7.8 8.0 76 2.0 NW 20 24 11 13 1007.4 1007.4 0.0
24/06:00am 11.5 7.8 8.0 79 1.7 NW 17 20 9 11 1007.3 1007.3 0.0
24/05:30am 11.4 7.6 7.7 78 1.8 NW 17 20 9 11 1007.0 1007.0 0.0
24/05:00am 11.9 8.1 7.4 74 2.2 NW 17 20 9 11 1006.6 1006.6 0.0
24/04:30am 12.7 8.5 7.6 71 2.5 WNW 19 22 10 12 1006.4 1006.4 0.0
24/04:00am 12.5 8.7 7.6 72 2.4 WNW 17 20 9 11 1006.3 1006.3 0.0
24/03:30am 12.8 8.4 7.3 69 2.7 WNW 20 26 11 14 1006.0 1006.0 0.0
24/03:00am 12.9 8.5 7.6 70 2.6 WNW 20 24 11 13 1006.0 1006.0 0.0
24/02:30am 13.6 9.3 7.2 65 3.1 NW 19 33 10 18 1006.0 1006.0 0.0
24/02:00am 13.5 8.9 6.4 62 3.4 WNW 20 26 11 14 1006.0 1006.0 0.0
24/01:30am 13.6 9.0 5.5 58 3.8 WNW 19 24 10 13 1006.3 1006.3 0.0
24/01:00am 13.2 8.6 5.4 59 3.6 WNW 19 30 10 16 1006.6 1006.6 0.0
24/12:30am 14.6 9.8 5.4 54 4.4 WNW 20 30 11 16 1006.5 1006.5 0.0
24/12:00am 13.8 9.0 4.7 54 4.2 W 19 22 10 12 1006.6 1006.6 0.0
 
Date/Time
CST
Temp
°C
App
Temp
°C
Dew
Point
°C
Rel
Hum
%
Delta-T
°C
Wind Press
QNH
hPa
Press
MSL
hPa
Rain since
9am
mm
Dir  Spd
km/h
Gust
km/h
Spd
kts
Gust
kts
23/11:30pm 16.1 10.1 5.4 49 5.1 WNW 26 35 14 19 1006.7 1006.7 0.0
23/11:00pm 13.8 9.4 6.4 61 3.5 NW 19 22 10 12 1006.7 1006.7 0.0
23/10:30pm 14.0 12.3 7.5 65 3.2 NNW 6 28 3 15 1006.4 1006.4 0.0
23/10:00pm 13.6 13.0 7.2 65 3.1 CALM 0 0 0 0 1006.8 1006.8 0.0
23/09:30pm 14.5 12.8 7.5 63 3.5 W 6 9 3 5 1006.8 1006.8 0.0
23/09:00pm 14.1 11.2 6.7 61 3.6 WSW 11 15 6 8 1007.1 1007.1 0.0
23/08:30pm 16.4 12.1 7.1 54 4.6 W 19 22 10 12 1006.6 1006.6 0.0
23/08:00pm 16.0 11.7 7.0 55 4.4 W 19 22 10 12 1006.0 1006.0 0.0
23/07:30pm 14.1 11.6 8.3 68 2.9 WSW 11 15 6 8 1005.3 1005.3 0.0
23/07:00pm 15.1 12.2 8.3 64 3.4 SSW 13 15 7 8 1004.8 1004.8 0.0
23/06:30pm 16.6 13.8 8.6 59 4.1 SSW 13 19 7 10 1004.4 1004.4 0.0
23/06:00pm 18.6 14.5 8.6 52 5.2 S 20 28 11 15 1003.9 1003.9 0.0
23/05:30pm 22.2 16.1 4.7 32 8.7 WSW 26 37 14 20 1003.3 1003.3 0.0
23/05:01pm 23.1 17.0 6.4 34 8.5 WSW 28 46 15 25 1002.9 1002.9 0.0
23/05:00pm 23.0 16.5 6.3 34 8.5 WSW 30 46 16 25 1002.9 1002.9 0.0
23/04:30pm 24.4 15.9 3.1 25 10.4 WSW 37 48 20 26 1002.2 1002.2 0.0
23/04:00pm 25.2 17.7 4.3 26 10.4 W 33 43 18 23 1002.3 1002.3 0.0
23/03:30pm 25.4 17.1 4.0 25 10.7 W 37 46 20 25 1002.2 1002.2 0.0
23/03:00pm 26.0 18.0 3.9 24 11.1 W 35 50 19 27 1002.0 1002.0 0.0
23/02:30pm 25.8 16.5 3.1 23 11.2 W 41 46 22 25 1001.9 1001.9 0.0
23/02:00pm 26.7 17.6 3.9 23 11.4 WSW 41 48 22 26 1001.7 1001.7 0.0
23/01:30pm 27.2 18.4 3.7 22 11.8 WSW 39 50 21 27 1001.5 1001.5 0.0
23/01:00pm 27.0 17.6 2.1 20 12.1 W 41 50 22 27 1001.3 1001.3 0.0
23/12:30pm 27.5 17.6 1.8 19 12.5 W 43 54 23 29 1000.8 1000.8 0.0
23/12:10pm 28.2 18.9 3.1 20 12.5 WNW 41 54 22 29 1000.9 1000.9 0.0
23/12:00pm 27.8 20.4 4.8 23 11.8 WNW 33 48 18 26 1000.9 1000.9 0.0
23/11:30am 26.5 20.6 7.5 30 10.2 NW 28 43 15 23 1001.0 1001.0 0.0
23/11:00am 25.9 19.7 8.0 32 9.6 NW 30 39 16 21 1001.0 1001.0 0.0
23/10:30am 25.8 21.5 9.2 35 9.1 NW 22 30 12 16 1001.0 1001.0 0.0
23/10:00am 24.7 19.4 8.6 36 8.6 NW 26 37 14 20 1001.2 1001.2 0.0
23/09:30am 23.4 19.4 8.3 38 8.0 NNW 19 26 10 14 1001.0 1001.0 0.0
23/09:00am 21.2 19.5 9.8 48 6.2 N 9 15 5 8 1000.8 1000.8 0.0
23/08:30am 17.6 16.8 11.6 68 3.3 NNE 7 11 4 6 1000.6 1000.6 0.0
23/08:00am 16.7 16.1 11.6 72 2.8 NW 6 9 3 5 999.8 999.8 0.0
23/07:30am 16.3 13.5 11.2 72 2.8 W 17 20 9 11 999.0 999.0 0.0
23/07:00am 17.1 13.7 10.5 65 3.5 W 19 26 10 14 998.2 998.2 0.0
23/06:30am 18.6 13.4 7.1 47 5.8 WNW 24 43 13 23 996.4 996.4 0.0
23/06:18am 22.0 14.8 5.0 33 8.4 NW 32 43 17 23 996.2 996.2 0.0
23/06:00am 19.2 14.3 5.3 40 6.8 WNW 20 32 11 17 996.0 996.0 0.0
23/05:30am 19.7 15.4 7.1 44 6.4 NNW 19 26 10 14 995.1 995.1 0.0
23/05:00am 19.1 14.9 7.5 47 5.9 WNW 19 24 10 13 995.1 995.1 0.0
23/04:30am 20.6 15.1 5.8 38 7.4 NNW 24 35 13 19 994.9 994.9 0.0
23/04:00am 21.5 16.2 5.0 34 8.1 N 22 30 12 16 994.9 994.9 0.0
23/03:30am 21.1 16.1 4.6 34 8.1 N 20 24 11 13 995.4 995.4 0.0
23/03:00am 16.4 12.4 6.8 53 4.8 N 17 20 9 11 996.0 996.0 0.0
23/02:30am 14.8 10.6 5.9 55 4.3 N 17 20 9 11 996.5 996.5 0.0
23/02:00am 12.0 8.4 2.7 53 4.1 NNE 11 13 6 7 997.4 997.4 0.0
23/01:30am 12.7 8.7 3.1 52 4.3 SSW 13 19 7 10 998.3 998.3 0.0
23/01:00am 13.6 9.7 3.4 50 4.6 SE 13 17 7 9 999.2 999.2 0.0
23/12:30am 13.2 9.1 2.4 48 4.8 ESE 13 17 7 9 999.9 999.9 0.0
23/12:00am 17.0 12.6 2.6 38 6.6 NNE 15 19 8 10 1000.6 1000.6 0.0
 
Date/Time
CST
Temp
°C
App
Temp
°C
Dew
Point
°C
Rel
Hum
%
Delta-T
°C
Wind Press
QNH
hPa
Press
MSL
hPa
Rain since
9am
mm
Dir  Spd
km/h
Gust
km/h
Spd
kts
Gust
kts
22/11:30pm 18.4 14.3 4.2 39 6.8 NE 15 17 8 9 1001.1 1001.1 0.0
22/11:00pm 16.8 12.6 3.8 42 6.0 NE 15 17 8 9 1001.5 1001.5 0.0
22/10:30pm 16.5 12.4 4.5 45 5.7 E 15 17 8 9 1002.0 1002.0 0.0
22/10:00pm 16.9 12.9 4.9 45 5.7 SW 15 17 8 9 1002.1 1002.1 0.0
22/09:30pm 18.9 14.3 3.5 36 7.3 WSW 17 20 9 11 1002.0 1002.0 0.0
22/09:00pm 22.0 18.8 3.2 29 9.0 N 9 13 5 7 1001.7 1001.7 0.0
22/08:30pm 25.9 21.6 3.2 23 11.2 W 15 26 8 14 1001.6 1001.6 0.0
22/08:00pm 24.3 20.3 5.1 29 9.7 NNE 15 17 8 9 1001.3 1001.3 0.0
22/07:30pm 23.5 20.1 5.9 32 9.0 NE 13 15 7 8 1001.4 1001.4 0.0
22/07:00pm 24.4 20.5 5.2 29 9.7 N 15 17 8 9 1001.3 1001.3 0.0
22/06:30pm 24.8 21.4 4.0 26 10.3 NNW 11 13 6 7 1001.2 1001.2 0.0
22/06:00pm 26.9 22.5 4.6 24 11.4 NW 17 20 9 11 1001.6 1001.6 0.0

Other Formats:

Comma delimited format used in spreadsheet applications
http://www.bom.gov.au/fwo/IDS60801/IDS60801.99749.axf

JavaScript Object Notation format (JSON) in row-major order
http://www.bom.gov.au/fwo/IDS60801/IDS60801.99749.json